Time;durP1;ratioP1;P1;durP2;ratioP2;P2;SDS_P1;SDS_P2;PMS_P1;PMS_P2;Temp;Humidity;BMP_temperature;BMP_pressure;BME280_temperature;BME280_humidity;BME280_pressure;Samples;Min_cycle;Max_cycle;Signal;HPM_P1;HPM_P2
2021/12/14 00:01:45;;;;;;;;;;;9.80;99.90;;;;;;5073616;28;20365;-79
2021/12/14 00:04:13;;;;;;;;;;;9.90;99.90;;;;;;5055454;28;19916;-80
2021/12/14 00:06:40;;;;;;;;;;;10.00;99.90;;;;;;5073572;28;19919;-80
2021/12/14 00:09:08;;;;;;;;;;;10.00;99.90;;;;;;5073444;28;19959;-79
2021/12/14 00:14:25;;;;;;;;;;;10.00;99.90;;;;;;5073658;28;19966;-79
2021/12/14 00:16:56;;;;;;;;;;;9.90;99.90;;;;;;5055192;28;19919;-79
2021/12/14 00:19:21;;;;;;;;;;;9.80;99.90;;;;;;5055159;28;19917;-79
2021/12/14 00:21:51;;;;;;;;;;;9.70;99.90;;;;;;5073735;28;20003;-80
2021/12/14 00:24:17;;;;;;;;;;;9.60;99.90;;;;;;5073436;28;20279;-80
2021/12/14 00:26:43;;;;;;;;;;;9.50;99.90;;;;;;5073415;28;19909;-79
2021/12/14 00:29:12;;;;;;;;;;;9.50;99.90;;;;;;5073553;28;20404;-79
2021/12/14 00:31:38;;;;;;;;;;;9.30;99.90;;;;;;5073179;28;19915;-80
2021/12/14 00:34:05;;;;;;;;;;;9.40;99.90;;;;;;5073236;28;20292;-80
2021/12/14 00:36:31;;;;;;;;;;;9.20;99.90;;;;;;5073279;28;19916;-79
2021/12/14 00:38:57;;;;;;;;;;;9.40;99.90;;;;;;5073214;28;20288;-80
2021/12/14 00:41:28;;;;;;;;;;;9.40;99.90;;;;;;5055129;28;19962;-80
2021/12/14 00:43:54;;;;;;;;;;;9.40;99.90;;;;;;5058810;28;20265;-80
2021/12/14 00:46:20;;;;;;;;;;;9.40;99.90;;;;;;5076877;28;19908;-80
2021/12/14 00:48:46;;;;;;;;;;;9.40;99.90;;;;;;5076762;28;19909;-80
2021/12/14 00:51:12;;;;;;;;;;;9.30;99.90;;;;;;5076720;28;19916;-80
2021/12/14 00:53:38;;;;;;;;;;;9.30;99.90;;;;;;5076581;28;19909;-80
2021/12/14 00:56:05;;;;;;;;;;;9.30;99.90;;;;;;5076602;28;19916;-80
2021/12/14 00:58:31;;;;;;;;;;;9.30;99.90;;;;;;5076823;28;19915;-80
2021/12/14 01:01:01;;;;;;;;;;;9.30;99.90;;;;;;5076588;28;20007;-80
2021/12/14 01:03:28;;;;;;;;;;;9.40;99.90;;;;;;5076349;28;19915;-80
2021/12/14 01:05:54;;;;;;;;;;;9.50;99.90;;;;;;5058464;28;19909;-80
2021/12/14 01:08:22;;;;;;;;;;;9.60;99.90;;;;;;5076807;28;19908;-80
2021/12/14 01:11:01;;;;;;;;;;;9.50;99.90;;;;;;5076731;28;19909;-79
2021/12/14 01:13:28;;;;;;;;;;;9.60;99.90;;;;;;5036434;28;19970;-79
2021/12/14 01:18:32;;;;;;;;;;;9.60;99.90;;;;;;5036363;28;19916;-80
2021/12/14 01:21:02;;;;;;;;;;;9.50;99.90;;;;;;5036729;28;19988;-79
2021/12/14 01:23:32;;;;;;;;;;;9.40;99.90;;;;;;5035493;28;19909;-80
2021/12/14 01:26:05;;;;;;;;;;;9.30;99.90;;;;;;5036281;28;19909;-79
2021/12/14 01:28:31;;;;;;;;;;;9.50;99.90;;;;;;5036333;28;19909;-80
2021/12/14 01:31:06;;;;;;;;;;;9.70;99.90;;;;;;5036308;28;19920;-80
2021/12/14 01:33:33;;;;;;;;;;;9.60;99.90;;;;;;5036006;28;20323;-79
2021/12/14 01:36:01;;;;;;;;;;;9.60;99.90;;;;;;5035942;28;19963;-79
2021/12/14 01:40:55;;;;;;;;;;;9.40;99.90;;;;;;5035873;28;19910;-79
2021/12/14 01:43:26;;;;;;;;;;;9.50;99.90;;;;;;5035822;28;19960;-79
2021/12/14 01:45:52;;;;;;;;;;;9.40;99.90;;;;;;5035906;28;19936;-80
2021/12/14 01:48:18;;;;;;;;;;;9.50;99.90;;;;;;5035761;28;19910;-79
2021/12/14 01:50:46;;;;;;;;;;;9.50;99.90;;;;;;5035706;28;20333;-80
2021/12/14 01:53:13;;;;;;;;;;;9.40;99.90;;;;;;5033861;28;20396;-80
2021/12/14 01:55:39;;;;;;;;;;;9.50;99.90;;;;;;5035240;28;19913;-78
2021/12/14 01:58:07;;;;;;;;;;;9.50;99.90;;;;;;5035585;28;19909;-79
2021/12/14 02:00:39;;;;;;;;;;;9.50;99.90;;;;;;5035633;28;20004;-79
2021/12/14 02:03:07;;;;;;;;;;;9.40;99.90;;;;;;5034777;28;19909;-79
2021/12/14 02:05:36;;;;;;;;;;;9.30;99.90;;;;;;5035462;28;19909;-79
2021/12/14 02:08:03;;;;;;;;;;;9.20;99.90;;;;;;5035384;28;19944;-80
2021/12/14 02:10:32;;;;;;;;;;;9.30;99.90;;;;;;5035736;28;19975;-78
2021/12/14 02:12:58;;;;;;;;;;;9.50;99.90;;;;;;5063676;28;19920;-79
2021/12/14 02:15:28;;;;;;;;;;;9.40;99.90;;;;;;5075067;28;19913;-80
2021/12/14 02:17:56;;;;;;;;;;;9.40;99.90;;;;;;5075038;28;20004;-79
2021/12/14 02:20:26;;;;;;;;;;;9.40;99.90;;;;;;5057216;28;19909;-80
2021/12/14 02:22:52;;;;;;;;;;;9.50;99.90;;;;;;5075159;28;19931;-79
2021/12/14 02:25:18;;;;;;;;;;;9.30;99.90;;;;;;5074895;28;20357;-79
2021/12/14 02:27:45;;;;;;;;;;;9.40;99.90;;;;;;5074989;28;19931;-80
2021/12/14 02:30:16;;;;;;;;;;;9.50;99.90;;;;;;5074828;28;19908;-79
2021/12/14 02:32:41;;;;;;;;;;;9.40;99.90;;;;;;5075033;28;19915;-79
2021/12/14 02:35:11;;;;;;;;;;;9.50;99.90;;;;;;5074741;28;19912;-78
2021/12/14 02:37:42;;;;;;;;;;;9.40;99.90;;;;;;5056702;28;19957;-79
2021/12/14 02:40:20;;;;;;;;;;;9.40;99.90;;;;;;5074724;28;19915;-80
2021/12/14 02:42:47;;;;;;;;;;;9.30;99.90;;;;;;5074884;28;19909;-79
2021/12/14 02:45:13;;;;;;;;;;;9.30;99.90;;;;;;5074537;28;19908;-78
2021/12/14 02:47:39;;;;;;;;;;;9.30;99.90;;;;;;5074444;28;19920;-80
2021/12/14 02:50:06;;;;;;;;;;;9.30;99.90;;;;;;5074419;28;19909;-80
2021/12/14 02:52:37;;;;;;;;;;;9.60;99.90;;;;;;5074520;28;19916;-81
2021/12/14 02:55:08;;;;;;;;;;;9.80;99.90;;;;;;5074407;28;20334;-80
2021/12/14 02:57:35;;;;;;;;;;;9.60;99.90;;;;;;5074361;28;20325;-79
2021/12/14 03:00:01;;;;;;;;;;;9.60;99.90;;;;;;5056347;28;20019;-80
2021/12/14 03:02:31;;;;;;;;;;;9.50;99.90;;;;;;5074220;28;20292;-80
2021/12/14 03:04:58;;;;;;;;;;;9.40;99.90;;;;;;5074351;28;19998;-80
2021/12/14 03:07:25;;;;;;;;;;;9.40;99.90;;;;;;5074217;28;19908;-80
2021/12/14 03:09:57;;;;;;;;;;;9.70;99.90;;;;;;5074153;28;19919;-80
2021/12/14 03:12:27;;;;;;;;;;;9.90;99.90;;;;;;5074041;28;19921;-79
2021/12/14 03:15:10;;;;;;;;;;;9.90;99.90;;;;;;5074543;28;19912;-81
2021/12/14 03:17:37;;;;;;;;;;;9.60;99.90;;;;;;5073994;28;20008;-79
2021/12/14 03:20:11;;;;;;;;;;;9.50;99.90;;;;;;5073935;28;19915;-80
2021/12/14 03:22:47;;;;;;;;;;;9.50;99.90;;;;;;5055916;28;20341;-79
2021/12/14 03:25:15;;;;;;;;;;;9.60;99.90;;;;;;5055984;28;20003;-79
2021/12/14 03:27:42;;;;;;;;;;;9.40;99.90;;;;;;5073854;28;19995;-79
2021/12/14 03:30:19;;;;;;;;;;;9.40;99.90;;;;;;5073792;28;19952;-79
2021/12/14 03:32:45;;;;;;;;;;;9.40;99.90;;;;;;5073894;28;19916;-80
2021/12/14 03:35:11;;;;;;;;;;;9.30;99.90;;;;;;5073721;28;19963;-79
2021/12/14 03:37:39;;;;;;;;;;;9.40;99.90;;;;;;5073832;28;20338;-79
2021/12/14 03:40:05;;;;;;;;;;;9.20;99.90;;;;;;5073768;28;19908;-79
2021/12/14 03:42:37;;;;;;;;;;;9.40;99.90;;;;;;5073853;28;19976;-80
2021/12/14 03:45:06;;;;;;;;;;;9.60;99.90;;;;;;5073936;28;19915;-79
2021/12/14 03:47:34;;;;;;;;;;;9.50;99.90;;;;;;5073761;28;19999;-79
2021/12/14 03:50:03;;;;;;;;;;;9.30;99.90;;;;;;5074088;28;20007;-79
2021/12/14 03:52:32;;;;;;;;;;;9.20;99.90;;;;;;5073865;28;20293;-80
2021/12/14 03:54:58;;;;;;;;;;;9.20;99.90;;;;;;5073598;28;20399;-81
2021/12/14 03:57:24;;;;;;;;;;;9.20;99.90;;;;;;5073571;28;19987;-78
2021/12/14 03:59:49;;;;;;;;;;;9.20;99.90;;;;;;5073562;28;19943;-79
2021/12/14 04:02:18;;;;;;;;;;;9.30;99.90;;;;;;5073534;28;19909;-79
2021/12/14 04:04:52;;;;;;;;;;;9.40;99.90;;;;;;5073698;28;20352;-78
2021/12/14 04:07:18;;;;;;;;;;;9.40;99.90;;;;;;5055283;28;20464;-79
2021/12/14 04:09:44;;;;;;;;;;;9.40;99.90;;;;;;5073529;28;19940;-79
2021/12/14 04:12:13;;;;;;;;;;;9.30;99.90;;;;;;5073380;28;20300;-79
2021/12/14 04:14:47;;;;;;;;;;;9.20;99.90;;;;;;5055314;28;20025;-80
2021/12/14 04:17:13;;;;;;;;;;;9.20;99.90;;;;;;5074840;28;19958;-80
2021/12/14 04:19:39;;;;;;;;;;;9.20;99.90;;;;;;5077339;28;19912;-80
2021/12/14 04:22:11;;;;;;;;;;;9.10;99.90;;;;;;5077406;28;19948;-79
2021/12/14 04:24:40;;;;;;;;;;;9.10;99.90;;;;;;5077451;28;19915;-80
2021/12/14 04:27:08;;;;;;;;;;;9.10;99.90;;;;;;5077214;28;20365;-79
2021/12/14 04:29:34;;;;;;;;;;;9.10;99.90;;;;;;5077142;28;19909;-79
2021/12/14 04:32:00;;;;;;;;;;;9.10;99.90;;;;;;5077177;28;19919;-79
2021/12/14 04:34:28;;;;;;;;;;;9.00;99.90;;;;;;5077039;28;20015;-79
2021/12/14 04:36:55;;;;;;;;;;;9.00;99.90;;;;;;5059093;28;19916;-78
2021/12/14 04:53:12;;;;;;;;;;;9.00;99.90;;;;;;5076736;28;19931;-80
2021/12/14 04:55:38;;;;;;;;;;;8.90;99.90;;;;;;5076544;28;19916;-80
2021/12/14 04:58:04;;;;;;;;;;;8.80;99.90;;;;;;5076676;28;19916;-79
2021/12/14 05:00:32;;;;;;;;;;;8.80;99.90;;;;;;5076643;28;19912;-80
2021/12/14 05:02:59;;;;;;;;;;;8.70;99.90;;;;;;5076597;28;20399;-79
2021/12/14 05:05:33;;;;;;;;;;;8.70;99.90;;;;;;5076516;28;19957;-80
2021/12/14 05:11:03;;;;;;;;;;;8.50;99.90;;;;;;5076373;28;19919;-79
2021/12/14 05:13:31;;;;;;;;;;;8.50;99.90;;;;;;5075935;28;19931;-79
2021/12/14 05:15:57;;;;;;;;;;;8.50;99.90;;;;;;5076473;28;19961;-80
2021/12/14 05:18:23;;;;;;;;;;;8.50;99.90;;;;;;5076302;28;20003;-79
2021/12/14 05:20:48;;;;;;;;;;;8.60;99.90;;;;;;5076239;28;20039;-80
2021/12/14 05:23:25;;;;;;;;;;;8.70;99.90;;;;;;5076409;28;20272;-79
2021/12/14 05:25:50;;;;;;;;;;;8.70;99.90;;;;;;5058194;28;19912;-79
2021/12/14 05:28:19;;;;;;;;;;;8.80;99.90;;;;;;5075049;28;19948;-79
2021/12/14 05:30:45;;;;;;;;;;;8.80;99.90;;;;;;5075969;28;19915;-80
2021/12/14 05:33:16;;;;;;;;;;;8.90;99.90;;;;;;5076022;28;20447;-79
2021/12/14 05:35:43;;;;;;;;;;;8.90;99.90;;;;;;5076334;28;20103;-79
2021/12/14 05:38:10;;;;;;;;;;;8.70;99.90;;;;;;5075978;28;19915;-79
2021/12/14 05:43:07;;;;;;;;;;;8.90;99.90;;;;;;5075859;28;19915;-80
2021/12/14 05:45:34;;;;;;;;;;;8.80;99.90;;;;;;5057594;28;19909;-78
2021/12/14 05:48:00;;;;;;;;;;;8.70;99.90;;;;;;5075831;28;19995;-79
2021/12/14 05:50:28;;;;;;;;;;;8.70;99.90;;;;;;5075743;28;20329;-80
2021/12/14 05:52:54;;;;;;;;;;;8.90;99.90;;;;;;5076122;28;19909;-79
2021/12/14 05:55:24;;;;;;;;;;;8.90;99.90;;;;;;5075594;28;19919;-79
2021/12/14 05:57:49;;;;;;;;;;;8.90;99.90;;;;;;5075557;28;19920;-80
2021/12/14 06:00:17;;;;;;;;;;;9.00;99.90;;;;;;5057586;28;19909;-79
2021/12/14 06:02:43;;;;;;;;;;;9.10;99.90;;;;;;5075721;28;19940;-79
2021/12/14 06:05:13;;;;;;;;;;;9.00;99.90;;;;;;5076190;28;19957;-79
2021/12/14 06:07:39;;;;;;;;;;;9.00;99.90;;;;;;5075737;28;20357;-79
2021/12/14 06:10:04;;;;;;;;;;;9.10;99.90;;;;;;5075593;28;19908;-79
2021/12/14 06:12:31;;;;;;;;;;;9.10;99.90;;;;;;5075139;28;20444;-78
2021/12/14 06:14:59;;;;;;;;;;;9.10;99.90;;;;;;5075295;28;19935;-80
2021/12/14 06:17:31;;;;;;;;;;;9.10;99.90;;;;;;5075178;28;19916;-79
2021/12/14 06:19:58;;;;;;;;;;;8.90;99.90;;;;;;5075123;28;20364;-80
2021/12/14 06:22:24;;;;;;;;;;;9.00;99.90;;;;;;5075046;28;20015;-79
2021/12/14 06:24:52;;;;;;;;;;;8.90;99.90;;;;;;5075019;28;19966;-79
2021/12/14 06:27:19;;;;;;;;;;;8.90;99.90;;;;;;5074929;28;19915;-80
2021/12/14 06:29:47;;;;;;;;;;;8.90;99.90;;;;;;5074911;28;19915;-79
2021/12/14 06:32:17;;;;;;;;;;;8.90;99.90;;;;;;5056802;28;19915;-79
2021/12/14 06:34:54;;;;;;;;;;;8.90;99.90;;;;;;5074729;28;20372;-79
2021/12/14 06:40:04;;;;;;;;;;;8.70;99.90;;;;;;5074370;28;19966;-79
2021/12/14 06:42:30;;;;;;;;;;;8.80;99.90;;;;;;5074574;28;19919;-80
2021/12/14 06:45:04;;;;;;;;;;;8.70;99.90;;;;;;5074766;28;19916;-80
2021/12/14 06:47:31;;;;;;;;;;;8.70;99.90;;;;;;5056641;28;19948;-80
2021/12/14 06:49:58;;;;;;;;;;;8.90;99.90;;;;;;5074459;28;19931;-79
2021/12/14 06:52:24;;;;;;;;;;;9.00;99.90;;;;;;5074451;28;20278;-79
2021/12/14 06:54:49;;;;;;;;;;;9.00;99.90;;;;;;5074336;28;20037;-80
2021/12/14 06:57:15;;;;;;;;;;;9.00;99.90;;;;;;5074501;28;19915;-79
2021/12/14 06:59:41;;;;;;;;;;;9.00;99.90;;;;;;5074206;28;19934;-80
2021/12/14 07:02:08;;;;;;;;;;;8.90;99.90;;;;;;5074198;28;20288;-79
2021/12/14 07:04:35;;;;;;;;;;;9.00;99.90;;;;;;5074692;28;19908;-80
2021/12/14 07:07:06;;;;;;;;;;;9.00;99.90;;;;;;5074222;28;19995;-80
2021/12/14 07:09:34;;;;;;;;;;;9.00;99.90;;;;;;5074229;28;19908;-79
2021/12/14 07:12:00;;;;;;;;;;;9.10;99.90;;;;;;5073927;28;19934;-80
2021/12/14 07:14:28;;;;;;;;;;;8.90;99.90;;;;;;5073943;28;19912;-79
2021/12/14 07:16:57;;;;;;;;;;;9.10;99.90;;;;;;5074130;28;20376;-79
2021/12/14 07:19:54;;;;;;;;;;;9.10;99.90;;;;;;5073936;28;19908;-80
2021/12/14 07:22:23;;;;;;;;;;;9.10;99.90;;;;;;5061493;28;19956;-80
2021/12/14 07:24:59;;;;;;;;;;;9.10;99.90;;;;;;5073851;28;19926;-80
2021/12/14 07:27:27;;;;;;;;;;;9.00;99.90;;;;;;5056171;28;19944;-79
2021/12/14 07:29:54;;;;;;;;;;;9.00;99.90;;;;;;5073769;28;20376;-79
2021/12/14 07:32:38;;;;;;;;;;;9.10;99.90;;;;;;5074272;28;19912;-79
2021/12/14 07:35:21;;;;;;;;;;;9.00;99.90;;;;;;5073614;28;19913;-77
2021/12/14 07:37:47;;;;;;;;;;;9.00;99.90;;;;;;5074040;28;20427;-79
2021/12/14 07:40:13;;;;;;;;;;;9.00;99.90;;;;;;5073838;28;19908;-79
2021/12/14 07:42:39;;;;;;;;;;;9.10;99.90;;;;;;5073802;28;19909;-78
2021/12/14 07:45:06;;;;;;;;;;;9.00;99.90;;;;;;5073899;28;20384;-80
2021/12/14 07:47:32;;;;;;;;;;;9.00;99.90;;;;;;5073695;28;19909;-81
2021/12/14 07:49:58;;;;;;;;;;;9.00;99.90;;;;;;5073677;28;19909;-79
2021/12/14 07:52:26;;;;;;;;;;;8.90;99.90;;;;;;5054786;28;19916;-79
2021/12/14 07:54:53;;;;;;;;;;;8.80;99.90;;;;;;5073715;28;19912;-79
2021/12/14 07:57:20;;;;;;;;;;;9.00;99.90;;;;;;5073581;28;19935;-79
2021/12/14 07:59:46;;;;;;;;;;;8.90;99.90;;;;;;5055517;28;19908;-80
2021/12/14 08:02:11;;;;;;;;;;;8.80;99.90;;;;;;5073239;28;19909;-78
2021/12/14 08:04:39;;;;;;;;;;;8.90;99.90;;;;;;5073693;28;19908;-79
2021/12/14 08:07:05;;;;;;;;;;;8.90;99.90;;;;;;5073480;28;19912;-80
2021/12/14 08:09:33;;;;;;;;;;;9.00;99.90;;;;;;5073565;28;19908;-79
2021/12/14 08:12:00;;;;;;;;;;;9.00;99.90;;;;;;5055228;28;19970;-81
2021/12/14 08:14:27;;;;;;;;;;;9.00;99.90;;;;;;5073299;28;19913;-80
2021/12/14 08:16:55;;;;;;;;;;;9.00;99.90;;;;;;5073342;28;19909;-80
2021/12/14 08:19:38;;;;;;;;;;;9.00;99.90;;;;;;5073337;28;19908;-78
2021/12/14 08:22:10;;;;;;;;;;;9.00;99.90;;;;;;5073392;28;19908;-78
2021/12/14 08:24:37;;;;;;;;;;;9.00;99.90;;;;;;5073616;28;19988;-79
2021/12/14 08:27:06;;;;;;;;;;;8.80;99.90;;;;;;5073257;28;19908;-79
2021/12/14 08:29:32;;;;;;;;;;;8.70;99.90;;;;;;5055058;28;20426;-78
2021/12/14 08:32:09;;;;;;;;;;;8.80;99.90;;;;;;5073715;28;20281;-79
2021/12/14 08:34:37;;;;;;;;;;;9.00;99.90;;;;;;5073115;28;19912;-79
2021/12/14 08:37:12;;;;;;;;;;;9.00;99.90;;;;;;5073195;28;19915;-78
2021/12/14 08:39:43;;;;;;;;;;;8.70;99.90;;;;;;5073288;28;19909;-79
2021/12/14 08:42:13;;;;;;;;;;;8.60;99.90;;;;;;5073092;28;20273;-79
2021/12/14 08:44:40;;;;;;;;;;;8.80;99.90;;;;;;5073267;28;19915;-78
2021/12/14 08:47:11;;;;;;;;;;;9.00;99.90;;;;;;5055109;28;19995;-78
2021/12/14 08:49:37;;;;;;;;;;;9.00;99.90;;;;;;5057350;28;19917;-79
2021/12/14 08:52:03;;;;;;;;;;;8.90;99.90;;;;;;5073046;28;20364;-79
2021/12/14 08:54:31;;;;;;;;;;;9.10;99.90;;;;;;5072954;28;19912;-79
2021/12/14 08:56:57;;;;;;;;;;;9.00;99.90;;;;;;5072922;28;20387;-79
2021/12/14 08:59:23;;;;;;;;;;;8.90;99.90;;;;;;5072940;28;19995;-79
2021/12/14 09:01:49;;;;;;;;;;;8.80;99.90;;;;;;5072986;28;19915;-79
2021/12/14 09:04:19;;;;;;;;;;;9.00;99.90;;;;;;5075565;28;20335;-79
2021/12/14 09:06:46;;;;;;;;;;;9.20;99.90;;;;;;5077215;28;19909;-79
2021/12/14 09:09:13;;;;;;;;;;;9.20;99.90;;;;;;5076350;28;19954;-79
2021/12/14 09:11:40;;;;;;;;;;;9.20;99.90;;;;;;5076525;28;19916;-79
2021/12/14 09:14:09;;;;;;;;;;;9.20;99.90;;;;;;5076314;28;19912;-79
2021/12/14 09:16:35;;;;;;;;;;;9.10;99.90;;;;;;5076256;28;19908;-79
2021/12/14 09:19:07;;;;;;;;;;;9.20;99.90;;;;;;5076300;28;19908;-78
2021/12/14 09:21:35;;;;;;;;;;;9.20;99.90;;;;;;5076393;28;19939;-79
2021/12/14 09:24:05;;;;;;;;;;;9.30;99.90;;;;;;5058207;28;19910;-78
2021/12/14 09:26:34;;;;;;;;;;;9.20;99.90;;;;;;5076124;28;19909;-79
2021/12/14 09:28:59;;;;;;;;;;;9.10;99.90;;;;;;5076118;28;20328;-79
2021/12/14 09:31:27;;;;;;;;;;;9.00;99.90;;;;;;5076007;28;19909;-79
2021/12/14 09:33:54;;;;;;;;;;;9.00;99.90;;;;;;5076049;28;19915;-78
2021/12/14 09:36:20;;;;;;;;;;;9.00;99.90;;;;;;5057994;28;19912;-79
2021/12/14 09:38:48;;;;;;;;;;;9.00;99.90;;;;;;5076009;28;19909;-78
2021/12/14 09:41:17;;;;;;;;;;;9.20;99.90;;;;;;5075809;28;19912;-79
2021/12/14 09:43:44;;;;;;;;;;;9.20;99.90;;;;;;5075920;28;19916;-79
2021/12/14 09:46:10;;;;;;;;;;;9.20;99.90;;;;;;5075706;28;19913;-78
2021/12/14 09:48:38;;;;;;;;;;;9.40;99.90;;;;;;5075624;28;20381;-79
2021/12/14 09:51:07;;;;;;;;;;;9.40;99.90;;;;;;5075604;28;19908;-79
2021/12/14 09:53:35;;;;;;;;;;;9.20;99.90;;;;;;5075519;28;19973;-79
2021/12/14 09:56:00;;;;;;;;;;;9.20;99.90;;;;;;5075385;28;19967;-79
2021/12/14 09:58:31;;;;;;;;;;;9.20;99.90;;;;;;5075395;28;19915;-79
2021/12/14 10:01:00;;;;;;;;;;;9.30;99.90;;;;;;5075524;28;19915;-79
2021/12/14 10:03:26;;;;;;;;;;;9.70;99.90;;;;;;5057379;28;19915;-79
2021/12/14 10:05:56;;;;;;;;;;;9.80;99.90;;;;;;5075699;28;19908;-79
2021/12/14 10:08:26;;;;;;;;;;;9.80;99.90;;;;;;5075430;28;19943;-79
2021/12/14 10:10:59;;;;;;;;;;;9.60;99.90;;;;;;5075255;28;19908;-79
2021/12/14 10:13:25;;;;;;;;;;;9.50;99.90;;;;;;5074839;28;19921;-78
2021/12/14 10:15:53;;;;;;;;;;;9.50;99.90;;;;;;5074237;28;20368;-79
2021/12/14 10:18:24;;;;;;;;;;;9.40;99.90;;;;;;5075407;28;19916;-79
2021/12/14 10:21:03;;;;;;;;;;;9.40;99.90;;;;;;5074763;28;20010;-77
2021/12/14 10:23:29;;;;;;;;;;;9.40;99.90;;;;;;5075056;28;19987;-78
2021/12/14 10:25:56;;;;;;;;;;;9.50;99.90;;;;;;5074936;28;19940;-79
2021/12/14 10:28:23;;;;;;;;;;;9.60;99.90;;;;;;5074917;28;19935;-79
2021/12/14 10:30:59;;;;;;;;;;;9.60;99.90;;;;;;5074909;28;19958;-79
2021/12/14 10:33:27;;;;;;;;;;;9.50;99.90;;;;;;5056598;28;19918;-79
2021/12/14 10:35:56;;;;;;;;;;;9.60;99.90;;;;;;5074990;28;20357;-80
2021/12/14 10:43:39;;;;;;;;;;;9.90;99.90;;;;;;5074363;28;20415;-79
2021/12/14 10:46:16;;;;;;;;;;;9.80;99.90;;;;;;5074687;28;19957;-79
2021/12/14 10:48:44;;;;;;;;;;;9.80;99.90;;;;;;5056570;28;19909;-79
2021/12/14 10:51:12;;;;;;;;;;;9.70;99.90;;;;;;5074487;28;19912;-78
2021/12/14 10:53:42;;;;;;;;;;;9.60;99.90;;;;;;5056529;28;19986;-79
2021/12/14 10:56:18;;;;;;;;;;;9.70;99.90;;;;;;5074320;28;19912;-79
2021/12/14 10:58:45;;;;;;;;;;;9.70;99.90;;;;;;5074444;28;20254;-79
2021/12/14 11:01:13;;;;;;;;;;;9.80;99.90;;;;;;5074245;28;19908;-79
2021/12/14 11:03:43;;;;;;;;;;;9.80;99.90;;;;;;5074252;28;20424;-79
2021/12/14 11:06:12;;;;;;;;;;;9.80;99.90;;;;;;5074294;28;19908;-79
2021/12/14 11:08:58;;;;;;;;;;;9.70;99.90;;;;;;5074426;28;19915;-79
2021/12/14 11:11:33;;;;;;;;;;;9.80;99.90;;;;;;5074244;28;19915;-79
2021/12/14 11:14:01;;;;;;;;;;;9.70;99.90;;;;;;5055767;28;19917;-79
2021/12/14 11:18:08;;;;;;;;;;;9.70;99.90;;;;;;5074294;28;19913;-79
2021/12/14 11:19:15;;;;;;;;;;;9.70;99.90;;;;;;5073531;28;20342;-79
2021/12/14 11:21:40;;;;;;;;;;;9.60;99.90;;;;;;5072549;28;19912;-80
2021/12/14 11:24:06;;;;;;;;;;;9.60;99.90;;;;;;5074042;28;19908;-80
2021/12/14 11:26:35;;;;;;;;;;;9.70;99.90;;;;;;5073820;28;19935;-79
2021/12/14 11:29:04;;;;;;;;;;;9.80;99.90;;;;;;5072604;28;19908;-79
2021/12/14 11:31:44;;;;;;;;;;;9.70;99.90;;;;;;5074345;28;19912;-78
2021/12/14 11:34:12;;;;;;;;;;;9.80;99.90;;;;;;5073847;28;20295;-79
2021/12/14 11:36:37;;;;;;;;;;;9.90;99.90;;;;;;5073806;28;19913;-79
2021/12/14 11:39:18;;;;;;;;;;;10.00;99.90;;;;;;5074018;28;19908;-79
2021/12/14 11:41:56;;;;;;;;;;;10.00;99.90;;;;;;5055519;28;19999;-79
2021/12/14 11:44:24;;;;;;;;;;;10.00;99.90;;;;;;5073692;28;19908;-79
2021/12/14 11:46:52;;;;;;;;;;;10.10;99.90;;;;;;5055738;28;20350;-79
2021/12/14 11:49:19;;;;;;;;;;;10.10;99.90;;;;;;5073754;28;19909;-78
2021/12/14 11:51:45;;;;;;;;;;;10.20;99.90;;;;;;5055225;28;19908;-79
2021/12/14 11:54:14;;;;;;;;;;;10.10;99.90;;;;;;5073482;28;19912;-79
2021/12/14 11:56:39;;;;;;;;;;;10.10;99.90;;;;;;5074114;28;19995;-79
2021/12/14 11:59:07;;;;;;;;;;;10.00;99.90;;;;;;5073481;28;19997;-79
2021/12/14 12:01:33;;;;;;;;;;;10.00;99.90;;;;;;5073601;28;19912;-79
2021/12/14 12:04:00;;;;;;;;;;;10.10;99.90;;;;;;5073481;28;19912;-79
2021/12/14 12:06:43;;;;;;;;;;;10.10;99.90;;;;;;5055516;28;20082;-79
2021/12/14 12:12:08;;;;;;;;;;;10.10;99.90;;;;;;5073519;28;19924;-79
2021/12/14 12:14:34;;;;;;;;;;;9.90;99.90;;;;;;5073580;28;19913;-79
2021/12/14 12:17:09;;;;;;;;;;;9.90;99.90;;;;;;5073674;28;19919;-79
2021/12/14 12:19:35;;;;;;;;;;;9.70;99.90;;;;;;5073353;28;19908;-79
2021/12/14 12:22:11;;;;;;;;;;;9.80;99.90;;;;;;5073424;28;19909;-79
2021/12/14 12:24:39;;;;;;;;;;;9.90;99.90;;;;;;5073954;28;19912;-79
2021/12/14 12:27:18;;;;;;;;;;;9.90;99.90;;;;;;5073425;28;20262;-79
2021/12/14 12:29:44;;;;;;;;;;;10.10;99.90;;;;;;5073269;28;19909;-79
2021/12/14 12:32:19;;;;;;;;;;;10.10;99.90;;;;;;5055462;28;19920;-80
2021/12/14 12:34:47;;;;;;;;;;;10.10;99.90;;;;;;5073745;28;20311;-79
2021/12/14 12:37:14;;;;;;;;;;;10.30;99.90;;;;;;5073212;28;19909;-79
2021/12/14 12:39:46;;;;;;;;;;;10.30;99.90;;;;;;5076618;28;20373;-79
2021/12/14 12:42:12;;;;;;;;;;;10.30;99.90;;;;;;5077237;28;19908;-80
2021/12/14 12:44:39;;;;;;;;;;;10.40;99.90;;;;;;5076913;28;20324;-78
2021/12/14 12:47:08;;;;;;;;;;;10.40;99.90;;;;;;5077005;28;19994;-79
2021/12/14 12:49:33;;;;;;;;;;;10.50;99.90;;;;;;5076867;28;19908;-79
2021/12/14 12:52:02;;;;;;;;;;;10.30;99.90;;;;;;5076752;28;19909;-79
2021/12/14 12:54:27;;;;;;;;;;;10.30;99.90;;;;;;5076658;28;20015;-79
2021/12/14 12:57:12;;;;;;;;;;;10.30;99.90;;;;;;5076572;28;20389;-79
2021/12/14 12:59:41;;;;;;;;;;;10.40;99.90;;;;;;5058671;28;19909;-78
2021/12/14 13:02:11;;;;;;;;;;;10.50;99.90;;;;;;5058642;28;19908;-79
2021/12/14 13:04:41;;;;;;;;;;;10.60;99.90;;;;;;5058549;28;20326;-80
2021/12/14 13:07:09;;;;;;;;;;;10.40;99.90;;;;;;5076604;28;19963;-79
2021/12/14 13:09:53;;;;;;;;;;;10.60;99.90;;;;;;5058447;28;19940;-79
2021/12/14 13:12:36;;;;;;;;;;;10.70;99.90;;;;;;5058163;28;19920;-79
2021/12/14 13:15:01;;;;;;;;;;;10.80;99.90;;;;;;5076446;28;20288;-79
2021/12/14 13:17:27;;;;;;;;;;;10.80;99.90;;;;;;5076403;28;19909;-79
2021/12/14 13:19:59;;;;;;;;;;;10.90;99.90;;;;;;5076239;28;19916;-79
2021/12/14 13:22:25;;;;;;;;;;;10.80;99.90;;;;;;5076223;28;19908;-79
2021/12/14 13:24:51;;;;;;;;;;;10.90;99.90;;;;;;5076475;28;20007;-79
2021/12/14 13:27:20;;;;;;;;;;;10.90;99.90;;;;;;5076709;28;19916;-79
2021/12/14 13:29:53;;;;;;;;;;;10.80;99.90;;;;;;5076072;28;20285;-79
2021/12/14 13:32:22;;;;;;;;;;;10.80;99.90;;;;;;5076515;28;19916;-79
2021/12/14 13:34:50;;;;;;;;;;;10.60;99.90;;;;;;5057930;28;20276;-78
2021/12/14 13:37:26;;;;;;;;;;;10.70;99.90;;;;;;5057963;28;20426;-79
2021/12/14 13:39:52;;;;;;;;;;;10.60;99.90;;;;;;5075915;28;20368;-79
2021/12/14 13:42:31;;;;;;;;;;;10.80;99.90;;;;;;5057896;28;20377;-79
2021/12/14 13:44:57;;;;;;;;;;;10.80;99.90;;;;;;5076116;28;20361;-80
2021/12/14 13:47:25;;;;;;;;;;;10.70;99.90;;;;;;5074526;28;19916;-79
2021/12/14 13:49:51;;;;;;;;;;;10.80;99.90;;;;;;5074483;28;20368;-79
2021/12/14 13:52:18;;;;;;;;;;;10.90;99.90;;;;;;5075962;28;19909;-79
2021/12/14 13:55:02;;;;;;;;;;;10.90;99.90;;;;;;5075534;28;19913;-80
2021/12/14 13:57:27;;;;;;;;;;;11.00;99.90;;;;;;5075527;28;20258;-79
2021/12/14 13:59:53;;;;;;;;;;;11.00;99.90;;;;;;5057594;28;20003;-79
2021/12/14 14:02:18;;;;;;;;;;;11.20;99.90;;;;;;5074194;28;20276;-79
2021/12/14 14:04:45;;;;;;;;;;;11.30;99.90;;;;;;5075778;28;19957;-78
2021/12/14 14:07:11;;;;;;;;;;;11.20;99.90;;;;;;5075388;28;19920;-79
2021/12/14 14:09:40;;;;;;;;;;;11.20;99.90;;;;;;5075892;28;20295;-79
2021/12/14 14:12:17;;;;;;;;;;;11.40;99.90;;;;;;5075117;28;19960;-80
2021/12/14 14:14:43;;;;;;;;;;;11.30;99.90;;;;;;5075739;28;19913;-79
2021/12/14 14:17:18;;;;;;;;;;;11.50;99.90;;;;;;5075147;28;19915;-80
2021/12/14 14:19:46;;;;;;;;;;;11.60;99.90;;;;;;5056834;28;20265;-79
2021/12/14 14:22:14;;;;;;;;;;;11.60;99.90;;;;;;5057146;28;19999;-79
2021/12/14 14:24:42;;;;;;;;;;;11.60;99.90;;;;;;5075002;28;19909;-78
2021/12/14 14:27:24;;;;;;;;;;;11.60;99.90;;;;;;5073687;28;19915;-79
2021/12/14 14:29:50;;;;;;;;;;;11.80;99.90;;;;;;5075032;28;19951;-79
2021/12/14 14:32:30;;;;;;;;;;;11.70;99.90;;;;;;5075360;28;19917;-79
2021/12/14 14:34:57;;;;;;;;;;;11.50;99.90;;;;;;5075114;28;19913;-79
2021/12/14 14:37:29;;;;;;;;;;;11.60;99.90;;;;;;5075020;28;20261;-79
2021/12/14 14:40:06;;;;;;;;;;;11.60;99.90;;;;;;5073322;28;20361;-79
2021/12/14 14:42:33;;;;;;;;;;;11.60;99.90;;;;;;5074792;28;19916;-80
2021/12/14 14:45:09;;;;;;;;;;;11.70;99.90;;;;;;5074572;28;20369;-79
2021/12/14 14:47:39;;;;;;;;;;;11.70;99.90;;;;;;5074650;28;19908;-80
2021/12/14 14:50:05;;;;;;;;;;;11.70;99.90;;;;;;5074486;28;19909;-79
2021/12/14 14:52:34;;;;;;;;;;;11.60;99.90;;;;;;5074642;28;20383;-79
2021/12/14 14:55:11;;;;;;;;;;;11.60;99.90;;;;;;5073031;28;20373;-79
2021/12/14 14:57:38;;;;;;;;;;;11.40;99.90;;;;;;5074569;28;19909;-78
2021/12/14 15:00:06;;;;;;;;;;;11.50;99.90;;;;;;5074374;28;19958;-80
2021/12/14 15:02:34;;;;;;;;;;;11.40;99.90;;;;;;5074247;28;19958;-79
2021/12/14 15:05:05;;;;;;;;;;;11.30;99.90;;;;;;5074293;28;19913;-79
2021/12/14 15:07:50;;;;;;;;;;;11.30;99.90;;;;;;5074254;28;19915;-79
2021/12/14 15:10:16;;;;;;;;;;;11.20;99.90;;;;;;5074772;28;20429;-78
2021/12/14 15:12:42;;;;;;;;;;;11.00;99.90;;;;;;5073918;28;19927;-79
2021/12/14 15:15:17;;;;;;;;;;;10.90;99.90;;;;;;5056114;28;19912;-79